sensor_id;sensor_type;location;lat;lon;timestamp;pressure;altitude;pressure_sealevel;temperature;humidity
21433;BME280;18592;49.708;10.900;2023-04-05T00:01:07;99304.34;;;7.83;42.74
21433;BME280;18592;49.708;10.900;2023-04-05T00:03:08;99305.38;;;7.82;42.86
21433;BME280;18592;49.708;10.900;2023-04-05T00:05:10;99303.75;;;7.81;42.68
21433;BME280;18592;49.708;10.900;2023-04-05T00:07:12;99300.41;;;7.79;42.86
21433;BME280;18592;49.708;10.900;2023-04-05T00:09:14;99287.88;;;7.78;43.03
21433;BME280;18592;49.708;10.900;2023-04-05T00:11:16;99291.63;;;7.77;42.82
21433;BME280;18592;49.708;10.900;2023-04-05T00:13:18;99295.41;;;7.76;42.70
21433;BME280;18592;49.708;10.900;2023-04-05T00:15:24;99288.53;;;7.74;43.13
21433;BME280;18592;49.708;10.900;2023-04-05T00:17:26;99287.69;;;7.73;43.21
21433;BME280;18592;49.708;10.900;2023-04-05T00:19:34;99288.72;;;7.72;43.09
21433;BME280;18592;49.708;10.900;2023-04-05T00:21:41;99283.72;;;7.69;43.21
21433;BME280;18592;49.708;10.900;2023-04-05T00:23:42;99284.19;;;7.66;43.02
21433;BME280;18592;49.708;10.900;2023-04-05T00:25:45;99277.69;;;7.67;43.35
21433;BME280;18592;49.708;10.900;2023-04-05T00:27:47;99275.81;;;7.67;43.61
21433;BME280;18592;49.708;10.900;2023-04-05T00:29:51;99280.41;;;7.67;43.14
21433;BME280;18592;49.708;10.900;2023-04-05T00:31:58;99273.31;;;7.66;43.18
21433;BME280;18592;49.708;10.900;2023-04-05T00:34:03;99276.25;;;7.64;43.31
21433;BME280;18592;49.708;10.900;2023-04-05T00:36:19;99267.50;;;7.62;43.10
21433;BME280;18592;49.708;10.900;2023-04-05T00:38:22;99266.03;;;7.60;43.18
21433;BME280;18592;49.708;10.900;2023-04-05T00:40:26;99271.69;;;7.58;43.23
21433;BME280;18592;49.708;10.900;2023-04-05T00:42:28;99263.75;;;7.57;43.21
21433;BME280;18592;49.708;10.900;2023-04-05T00:44:31;99263.97;;;7.55;43.16
21433;BME280;18592;49.708;10.900;2023-04-05T00:46:39;99261.44;;;7.54;43.27
21433;BME280;18592;49.708;10.900;2023-04-05T00:48:42;99261.69;;;7.52;43.17
21433;BME280;18592;49.708;10.900;2023-04-05T00:50:46;99260.00;;;7.51;43.39
21433;BME280;18592;49.708;10.900;2023-04-05T00:52:49;99257.53;;;7.50;43.62
21433;BME280;18592;49.708;10.900;2023-04-05T00:54:54;99257.75;;;7.48;43.46
21433;BME280;18592;49.708;10.900;2023-04-05T00:56:58;99254.38;;;7.46;43.36
21433;BME280;18592;49.708;10.900;2023-04-05T00:59:00;99255.66;;;7.44;43.56
21433;BME280;18592;49.708;10.900;2023-04-05T01:01:16;99251.91;;;7.45;43.78
21433;BME280;18592;49.708;10.900;2023-04-05T01:03:19;99247.75;;;7.42;43.67
21433;BME280;18592;49.708;10.900;2023-04-05T01:05:37;99245.44;;;7.39;43.77
21433;BME280;18592;49.708;10.900;2023-04-05T01:07:45;99243.56;;;7.40;43.86
21433;BME280;18592;49.708;10.900;2023-04-05T01:09:58;99246.72;;;7.37;43.86
21433;BME280;18592;49.708;10.900;2023-04-05T01:12:04;99236.28;;;7.34;43.66
21433;BME280;18592;49.708;10.900;2023-04-05T01:14:08;99238.81;;;7.35;43.71
21433;BME280;18592;49.708;10.900;2023-04-05T01:16:09;99242.78;;;7.33;43.64
21433;BME280;18592;49.708;10.900;2023-04-05T01:18:12;99243.81;;;7.32;43.61
21433;BME280;18592;49.708;10.900;2023-04-05T01:20:14;99225.25;;;7.29;43.74
21433;BME280;18592;49.708;10.900;2023-04-05T01:27:20;99216.31;;;7.22;43.45
21433;BME280;18592;49.708;10.900;2023-04-05T01:32:33;99223.22;;;7.18;44.01
21433;BME280;18592;49.708;10.900;2023-04-05T01:34:49;99227.19;;;7.15;44.02
21433;BME280;18592;49.708;10.900;2023-04-05T01:37:03;99209.25;;;7.14;43.68
21433;BME280;18592;49.708;10.900;2023-04-05T01:39:08;99219.47;;;7.12;43.60
21433;BME280;18592;49.708;10.900;2023-04-05T01:41:11;99211.75;;;7.09;43.62
21433;BME280;18592;49.708;10.900;2023-04-05T01:43:16;99212.81;;;7.08;43.52
21433;BME280;18592;49.708;10.900;2023-04-05T01:45:18;99205.09;;;7.05;43.69
21433;BME280;18592;49.708;10.900;2023-04-05T01:47:20;99211.56;;;7.04;43.26
21433;BME280;18592;49.708;10.900;2023-04-05T01:49:22;99215.53;;;7.01;43.05
21433;BME280;18592;49.708;10.900;2023-04-05T01:51:24;99207.63;;;7.00;43.46
21433;BME280;18592;49.708;10.900;2023-04-05T01:53:26;99214.28;;;6.97;43.84
21433;BME280;18592;49.708;10.900;2023-04-05T01:55:28;99214.28;;;6.97;43.41
21433;BME280;18592;49.708;10.900;2023-04-05T01:57:29;99204.72;;;6.95;43.57
21433;BME280;18592;49.708;10.900;2023-04-05T01:59:31;99211.16;;;6.94;43.64
21433;BME280;18592;49.708;10.900;2023-04-05T02:01:36;99210.56;;;6.92;43.45
21433;BME280;18592;49.708;10.900;2023-04-05T02:03:38;99216.19;;;6.90;43.85
21433;BME280;18592;49.708;10.900;2023-04-05T02:05:45;99211.81;;;6.89;44.00
21433;BME280;18592;49.708;10.900;2023-04-05T02:07:50;99223.69;;;6.88;44.05
21433;BME280;18592;49.708;10.900;2023-04-05T02:09:51;99223.91;;;6.87;44.13
21433;BME280;18592;49.708;10.900;2023-04-05T02:11:55;99222.03;;;6.87;44.19
21433;BME280;18592;49.708;10.900;2023-04-05T02:13:57;99217.66;;;6.86;44.35
21433;BME280;18592;49.708;10.900;2023-04-05T02:15:58;99221.41;;;6.85;44.27
21433;BME280;18592;49.708;10.900;2023-04-05T02:18:02;99216.19;;;6.84;44.08
21433;BME280;18592;49.708;10.900;2023-04-05T02:20:06;99220.75;;;6.83;44.03
21433;BME280;18592;49.708;10.900;2023-04-05T02:22:08;99218.50;;;6.80;44.06
21433;BME280;18592;49.708;10.900;2023-04-05T02:24:12;99217.66;;;6.80;44.06
21433;BME280;18592;49.708;10.900;2023-04-05T02:26:13;99213.91;;;6.81;44.27
21433;BME280;18592;49.708;10.900;2023-04-05T02:28:15;99219.53;;;6.79;44.00
21433;BME280;18592;49.708;10.900;2023-04-05T02:30:17;99214.94;;;6.80;44.34
21433;BME280;18592;49.708;10.900;2023-04-05T02:32:19;99208.91;;;6.78;44.19
21433;BME280;18592;49.708;10.900;2023-04-05T02:34:21;99208.91;;;6.78;44.37
21433;BME280;18592;49.708;10.900;2023-04-05T02:36:23;99207.84;;;6.79;44.53
21433;BME280;18592;49.708;10.900;2023-04-05T02:38:28;99203.50;;;6.78;44.46
21433;BME280;18592;49.708;10.900;2023-04-05T02:40:30;99203.50;;;6.78;44.24
21433;BME280;18592;49.708;10.900;2023-04-05T02:42:34;99203.91;;;6.75;44.30
21433;BME280;18592;49.708;10.900;2023-04-05T02:44:39;99203.06;;;6.74;44.41
21433;BME280;18592;49.708;10.900;2023-04-05T02:46:42;99203.06;;;6.74;44.41
21433;BME280;18592;49.708;10.900;2023-04-05T02:48:48;99203.06;;;6.74;44.42
21433;BME280;18592;49.708;10.900;2023-04-05T02:50:54;99200.38;;;6.74;44.42
21433;BME280;18592;49.708;10.900;2023-04-05T02:52:56;99200.59;;;6.73;44.48
21433;BME280;18592;49.708;10.900;2023-04-05T02:54:58;99199.75;;;6.72;44.24
21433;BME280;18592;49.708;10.900;2023-04-05T02:57:03;99201.63;;;6.72;44.41
21433;BME280;18592;49.708;10.900;2023-04-05T02:59:18;99197.22;;;6.71;44.73
21433;BME280;18592;49.708;10.900;2023-04-05T03:01:21;99199.31;;;6.69;44.76
21433;BME280;18592;49.708;10.900;2023-04-05T03:03:23;99197.69;;;6.68;44.97
21433;BME280;18592;49.708;10.900;2023-04-05T03:05:25;99199.56;;;6.67;44.78
21433;BME280;18592;49.708;10.900;2023-04-05T03:07:27;99203.28;;;6.66;45.45
21433;BME280;18592;49.708;10.900;2023-04-05T03:09:31;99197.88;;;6.66;45.19
21433;BME280;18592;49.708;10.900;2023-04-05T03:11:39;99196.00;;;6.67;45.04
21433;BME280;18592;49.708;10.900;2023-04-05T03:13:41;99196.00;;;6.67;45.12
21433;BME280;18592;49.708;10.900;2023-04-05T03:15:53;99199.97;;;6.64;44.84
21433;BME280;18592;49.708;10.900;2023-04-05T03:17:57;99198.94;;;6.65;44.89
21433;BME280;18592;49.708;10.900;2023-04-05T03:19:59;99197.03;;;6.66;45.09
21433;BME280;18592;49.708;10.900;2023-04-05T03:22:01;99195.38;;;6.65;45.07
21433;BME280;18592;49.708;10.900;2023-04-05T03:24:07;99199.97;;;6.64;45.14
21433;BME280;18592;49.708;10.900;2023-04-05T03:26:14;99202.06;;;6.62;44.84
21433;BME280;18592;49.708;10.900;2023-04-05T03:28:23;99200.19;;;6.63;44.77
21433;BME280;18592;49.708;10.900;2023-04-05T03:30:28;99192.25;;;6.61;44.63
21433;BME280;18592;49.708;10.900;2023-04-05T03:32:36;99190.78;;;6.59;44.40
21433;BME280;18592;49.708;10.900;2023-04-05T03:34:46;99187.47;;;6.57;44.44
21433;BME280;18592;49.708;10.900;2023-04-05T03:36:50;99192.47;;;6.53;44.08
21433;BME280;18592;49.708;10.900;2023-04-05T03:39:01;99201.22;;;6.49;44.16
21433;BME280;18592;49.708;10.900;2023-04-05T03:41:02;99193.50;;;6.46;44.49
21433;BME280;18592;49.708;10.900;2023-04-05T03:43:04;99191.03;;;6.44;44.67
21433;BME280;18592;49.708;10.900;2023-04-05T03:45:06;99191.03;;;6.44;44.66
21433;BME280;18592;49.708;10.900;2023-04-05T03:47:09;99192.06;;;6.43;44.96
21433;BME280;18592;49.708;10.900;2023-04-05T03:49:13;99190.19;;;6.44;44.83
21433;BME280;18592;49.708;10.900;2023-04-05T03:51:16;99195.59;;;6.44;44.80
21433;BME280;18592;49.708;10.900;2023-04-05T03:53:23;99190.41;;;6.42;44.63
21433;BME280;18592;49.708;10.900;2023-04-05T03:55:28;99188.50;;;6.43;44.75
21433;BME280;18592;49.708;10.900;2023-04-05T03:57:40;99189.56;;;6.42;44.92
21433;BME280;18592;49.708;10.900;2023-04-05T03:59:54;99191.44;;;6.41;44.67
21433;BME280;18592;49.708;10.900;2023-04-05T04:01:56;99186.84;;;6.42;45.20
21433;BME280;18592;49.708;10.900;2023-04-05T04:03:59;99191.44;;;6.41;45.32
21433;BME280;18592;49.708;10.900;2023-04-05T04:06:02;99187.03;;;6.40;44.83
21433;BME280;18592;49.708;10.900;2023-04-05T04:08:05;99181.63;;;6.40;44.89
21433;BME280;18592;49.708;10.900;2023-04-05T04:10:14;99182.69;;;6.39;44.76
21433;BME280;18592;49.708;10.900;2023-04-05T04:12:20;99185.59;;;6.37;44.73
21433;BME280;18592;49.708;10.900;2023-04-05T04:14:28;99187.50;;;6.37;44.89
21433;BME280;18592;49.708;10.900;2023-04-05T04:16:49;99184.13;;;6.35;44.87
21433;BME280;18592;49.708;10.900;2023-04-05T04:19:06;99183.31;;;6.34;45.34
21433;BME280;18592;49.708;10.900;2023-04-05T04:21:37;99188.94;;;6.33;45.00
21433;BME280;18592;49.708;10.900;2023-04-05T04:23:54;99190.00;;;6.32;45.25
21433;BME280;18592;49.708;10.900;2023-04-05T04:26:22;99189.34;;;6.30;45.20
21433;BME280;18592;49.708;10.900;2023-04-05T04:28:52;99190.41;;;6.29;45.27
21433;BME280;18592;49.708;10.900;2023-04-05T04:31:00;99191.25;;;6.29;44.70
21433;BME280;18592;49.708;10.900;2023-04-05T04:33:42;99189.78;;;6.27;45.20
21433;BME280;18592;49.708;10.900;2023-04-05T04:35:47;99198.94;;;6.26;45.13
21433;BME280;18592;49.708;10.900;2023-04-05T04:38:05;99199.78;;;6.26;45.38
21433;BME280;18592;49.708;10.900;2023-04-05T04:40:37;99195.59;;;6.24;45.15
21433;BME280;18592;49.708;10.900;2023-04-05T04:42:55;99197.25;;;6.25;45.17
21433;BME280;18592;49.708;10.900;2023-04-05T04:45:19;99197.03;;;6.20;45.16
21433;BME280;18592;49.708;10.900;2023-04-05T04:47:34;99193.53;;;6.19;45.06
21433;BME280;18592;49.708;10.900;2023-04-05T04:50:03;99196.44;;;6.18;45.20
21433;BME280;18592;49.708;10.900;2023-04-05T04:52:05;99203.50;;;6.19;45.40
21433;BME280;18592;49.708;10.900;2023-04-05T04:54:06;99204.53;;;6.18;45.05
21433;BME280;18592;49.708;10.900;2023-04-05T04:56:08;99200.19;;;6.17;45.07
21433;BME280;18592;49.708;10.900;2023-04-05T04:58:12;99203.69;;;6.17;45.58
21433;BME280;18592;49.708;10.900;2023-04-05T05:00:16;99202.91;;;6.17;45.05
21433;BME280;18592;49.708;10.900;2023-04-05T05:02:28;99200.38;;;6.15;45.19
21433;BME280;18592;49.708;10.900;2023-04-05T05:04:33;99208.50;;;6.15;45.23
21433;BME280;18592;49.708;10.900;2023-04-05T05:06:37;99202.25;;;6.15;45.24
21433;BME280;18592;49.708;10.900;2023-04-05T05:08:39;99205.78;;;6.15;45.27
21433;BME280;18592;49.708;10.900;2023-04-05T05:10:41;99206.00;;;6.14;45.41
21433;BME280;18592;49.708;10.900;2023-04-05T05:12:43;99211.41;;;6.14;45.55
21433;BME280;18592;49.708;10.900;2023-04-05T05:14:48;99209.56;;;6.14;45.68
21433;BME280;18592;49.708;10.900;2023-04-05T05:16:51;99210.38;;;6.15;45.38
21433;BME280;18592;49.708;10.900;2023-04-05T05:18:55;99210.38;;;6.15;45.05
21433;BME280;18592;49.708;10.900;2023-04-05T05:20:59;99209.56;;;6.14;45.44
21433;BME280;18592;49.708;10.900;2023-04-05T05:23:02;99211.19;;;6.15;45.61
21433;BME280;18592;49.708;10.900;2023-04-05T05:25:06;99214.13;;;6.14;45.52
21433;BME280;18592;49.708;10.900;2023-04-05T05:27:08;99219.31;;;6.15;45.42
21433;BME280;18592;49.708;10.900;2023-04-05T05:29:10;99217.47;;;6.16;45.37
21433;BME280;18592;49.708;10.900;2023-04-05T05:31:15;99224.56;;;6.17;45.45
21433;BME280;18592;49.708;10.900;2023-04-05T05:33:18;99226.41;;;6.16;45.96
21433;BME280;18592;49.708;10.900;2023-04-05T05:35:20;99218.06;;;6.18;46.10
21433;BME280;18592;49.708;10.900;2023-04-05T05:37:30;99221.84;;;6.17;46.16
21433;BME280;18592;49.708;10.900;2023-04-05T05:39:32;99224.09;;;6.20;46.17
21433;BME280;18592;49.708;10.900;2023-04-05T05:41:33;99220.38;;;6.21;46.00
21433;BME280;18592;49.708;10.900;2023-04-05T05:43:35;99218.28;;;6.23;45.78
21433;BME280;18592;49.708;10.900;2023-04-05T05:45:37;99223.50;;;6.24;45.83
21433;BME280;18592;49.708;10.900;2023-04-05T05:47:38;99222.47;;;6.25;46.24
21433;BME280;18592;49.708;10.900;2023-04-05T05:49:40;99223.28;;;6.26;45.82
21433;BME280;18592;49.708;10.900;2023-04-05T05:51:42;99223.91;;;6.28;46.06
21433;BME280;18592;49.708;10.900;2023-04-05T05:53:46;99217.47;;;6.29;46.31
21433;BME280;18592;49.708;10.900;2023-04-05T05:55:48;99217.47;;;6.29;46.51
21433;BME280;18592;49.708;10.900;2023-04-05T05:57:49;99222.25;;;6.33;46.34
21433;BME280;18592;49.708;10.900;2023-04-05T05:59:53;99227.44;;;6.35;46.88
21433;BME280;18592;49.708;10.900;2023-04-05T06:01:57;99225.19;;;6.38;45.86
21433;BME280;18592;49.708;10.900;2023-04-05T06:04:05;99222.91;;;6.42;46.68
21433;BME280;18592;49.708;10.900;2023-04-05T06:06:09;99220.81;;;6.44;47.01
21433;BME280;18592;49.708;10.900;2023-04-05T06:08:11;99224.34;;;6.45;46.52
21433;BME280;18592;49.708;10.900;2023-04-05T06:10:13;99232.88;;;6.48;46.46
21433;BME280;18592;49.708;10.900;2023-04-05T06:12:15;99226.22;;;6.51;46.76
21433;BME280;18592;49.708;10.900;2023-04-05T06:14:17;99234.75;;;6.54;46.83
21433;BME280;18592;49.708;10.900;2023-04-05T06:16:20;99232.69;;;6.56;46.51
21433;BME280;18592;49.708;10.900;2023-04-05T06:18:21;99232.25;;;6.59;46.54
21433;BME280;18592;49.708;10.900;2023-04-05T06:20:26;99232.69;;;6.63;47.30
21433;BME280;18592;49.708;10.900;2023-04-05T06:22:28;99236.41;;;6.68;47.27
21433;BME280;18592;49.708;10.900;2023-04-05T06:24:30;99233.28;;;6.71;46.69
21433;BME280;18592;49.708;10.900;2023-04-05T06:26:32;99224.75;;;6.74;46.99
21433;BME280;18592;49.708;10.900;2023-04-05T06:28:34;99232.84;;;6.81;46.94
21433;BME280;18592;49.708;10.900;2023-04-05T06:30:36;99219.50;;;6.86;47.09
21433;BME280;18592;49.708;10.900;2023-04-05T06:32:38;99225.97;;;6.91;47.12
21433;BME280;18592;49.708;10.900;2023-04-05T06:34:39;99230.56;;;6.97;47.11
21433;BME280;18592;49.708;10.900;2023-04-05T06:36:48;99221.56;;;7.03;47.31
21433;BME280;18592;49.708;10.900;2023-04-05T06:38:51;99234.28;;;7.10;47.26
21433;BME280;18592;49.708;10.900;2023-04-05T06:40:52;99219.88;;;7.16;47.06
21433;BME280;18592;49.708;10.900;2023-04-05T06:42:54;99218.81;;;7.23;46.96
21433;BME280;18592;49.708;10.900;2023-04-05T06:45:01;99217.94;;;7.36;47.84
21433;BME280;18592;49.708;10.900;2023-04-05T06:47:07;99224.56;;;7.46;47.31
21433;BME280;18592;49.708;10.900;2023-04-05T06:49:09;99216.59;;;7.58;47.31
21433;BME280;18592;49.708;10.900;2023-04-05T06:51:10;99220.72;;;7.67;47.44
21433;BME280;18592;49.708;10.900;2023-04-05T06:53:14;99223.78;;;7.77;47.14
21433;BME280;18592;49.708;10.900;2023-04-05T06:55:18;99226.88;;;7.87;46.73
21433;BME280;18592;49.708;10.900;2023-04-05T06:57:23;99225.97;;;8.00;46.68
21433;BME280;18592;49.708;10.900;2023-04-05T06:59:26;99221.53;;;8.12;46.45
21433;BME280;18592;49.708;10.900;2023-04-05T07:01:28;99217.88;;;8.24;46.14
21433;BME280;18592;49.708;10.900;2023-04-05T07:03:29;99210.91;;;8.35;46.04
21433;BME280;18592;49.708;10.900;2023-04-05T07:05:31;99222.53;;;8.49;45.74
21433;BME280;18592;49.708;10.900;2023-04-05T07:07:37;99222.41;;;8.62;45.89
21433;BME280;18592;49.708;10.900;2023-04-05T07:09:42;99216.19;;;8.79;46.23
21433;BME280;18592;49.708;10.900;2023-04-05T07:11:44;99200.13;;;8.96;46.10
21433;BME280;18592;49.708;10.900;2023-04-05T07:13:46;99210.66;;;9.29;46.09
21433;BME280;18592;49.708;10.900;2023-04-05T07:15:49;99209.22;;;9.44;46.13
21433;BME280;18592;49.708;10.900;2023-04-05T07:17:53;99195.19;;;9.59;46.14
21433;BME280;18592;49.708;10.900;2023-04-05T07:19:55;99198.34;;;9.74;46.21
21433;BME280;18592;49.708;10.900;2023-04-05T07:21:57;99200.69;;;9.89;46.21
21433;BME280;18592;49.708;10.900;2023-04-05T07:23:59;99197.53;;;10.03;46.01
21433;BME280;18592;49.708;10.900;2023-04-05T07:26:02;99190.00;;;10.17;45.60
21433;BME280;18592;49.708;10.900;2023-04-05T07:28:08;99194.44;;;10.30;45.51
21433;BME280;18592;49.708;10.900;2023-04-05T07:30:10;99181.44;;;10.43;45.04
21433;BME280;18592;49.708;10.900;2023-04-05T07:32:13;99186.09;;;10.54;45.36
21433;BME280;18592;49.708;10.900;2023-04-05T07:34:17;99191.06;;;10.69;45.27
21433;BME280;18592;49.708;10.900;2023-04-05T07:36:18;99191.06;;;10.80;44.92
21433;BME280;18592;49.708;10.900;2023-04-05T07:38:21;99182.31;;;10.90;44.83
21433;BME280;18592;49.708;10.900;2023-04-05T07:40:22;99189.63;;;11.01;44.87
21433;BME280;18592;49.708;10.900;2023-04-05T07:42:24;99189.63;;;11.13;44.92
21433;BME280;18592;49.708;10.900;2023-04-05T07:44:26;99184.16;;;11.24;45.09
21433;BME280;18592;49.708;10.900;2023-04-05T07:46:27;99185.22;;;11.35;44.64
21433;BME280;18592;49.708;10.900;2023-04-05T07:48:30;99192.28;;;11.47;44.75
21433;BME280;18592;49.708;10.900;2023-04-05T07:50:33;99190.34;;;11.60;44.78
21433;BME280;18592;49.708;10.900;2023-04-05T07:52:34;99195.84;;;11.71;44.59
21433;BME280;18592;49.708;10.900;2023-04-05T07:54:36;99190.31;;;11.83;44.39
21433;BME280;18592;49.708;10.900;2023-04-05T07:56:40;99189.44;;;11.94;44.42
21433;BME280;18592;49.708;10.900;2023-04-05T07:58:44;99186.66;;;12.05;44.38
21433;BME280;18592;49.708;10.900;2023-04-05T08:00:45;99186.84;;;12.16;44.02
21433;BME280;18592;49.708;10.900;2023-04-05T08:02:47;99193.06;;;12.28;43.77
21433;BME280;18592;49.708;10.900;2023-04-05T08:04:49;99183.97;;;12.39;43.53
21433;BME280;18592;49.708;10.900;2023-04-05T08:06:51;99188.78;;;12.48;43.59
21433;BME280;18592;49.708;10.900;2023-04-05T08:08:52;99188.69;;;12.60;43.35
21433;BME280;18592;49.708;10.900;2023-04-05T08:10:54;99190.53;;;12.71;43.21
21433;BME280;18592;49.708;10.900;2023-04-05T08:12:56;99195.91;;;12.83;43.07
21433;BME280;18592;49.708;10.900;2023-04-05T08:14:57;99194.97;;;12.94;42.67
21433;BME280;18592;49.708;10.900;2023-04-05T08:16:59;99179.53;;;13.04;42.69
21433;BME280;18592;49.708;10.900;2023-04-05T08:19:00;99187.66;;;13.16;42.74
21433;BME280;18592;49.708;10.900;2023-04-05T08:21:02;99189.47;;;13.27;42.53
21433;BME280;18592;49.708;10.900;2023-04-05T08:23:04;99181.97;;;13.39;42.43
21433;BME280;18592;49.708;10.900;2023-04-05T08:25:06;99175.78;;;13.49;42.11
21433;BME280;18592;49.708;10.900;2023-04-05T08:27:08;99177.09;;;13.63;42.43
21433;BME280;18592;49.708;10.900;2023-04-05T08:29:09;99174.19;;;13.74;42.21
21433;BME280;18592;49.708;10.900;2023-04-05T08:31:14;99178.44;;;13.87;42.17
21433;BME280;18592;49.708;10.900;2023-04-05T08:33:15;99177.22;;;13.99;41.62
21433;BME280;18592;49.708;10.900;2023-04-05T08:35:17;99168.25;;;14.09;41.54
21433;BME280;18592;49.708;10.900;2023-04-05T08:37:19;99164.81;;;14.19;40.74
21433;BME280;18592;49.708;10.900;2023-04-05T08:39:20;99175.63;;;14.30;40.61
21433;BME280;18592;49.708;10.900;2023-04-05T08:41:25;99173.00;;;14.40;40.83
21433;BME280;18592;49.708;10.900;2023-04-05T08:43:43;99162.94;;;14.51;40.38
21433;BME280;18592;49.708;10.900;2023-04-05T08:45:48;99175.41;;;14.63;40.69
21433;BME280;18592;49.708;10.900;2023-04-05T08:47:51;99177.16;;;14.75;40.66
21433;BME280;18592;49.708;10.900;2023-04-05T08:49:54;99169.53;;;14.87;40.20
21433;BME280;18592;49.708;10.900;2023-04-05T08:51:59;99168.78;;;14.96;40.12
21433;BME280;18592;49.708;10.900;2023-04-05T08:54:01;99162.50;;;15.06;39.84
21433;BME280;18592;49.708;10.900;2023-04-05T08:56:05;99166.44;;;15.15;39.21
21433;BME280;18592;49.708;10.900;2023-04-05T08:58:12;99167.03;;;15.22;39.50
21433;BME280;18592;49.708;10.900;2023-04-05T09:00:14;99164.31;;;15.32;39.28
21433;BME280;18592;49.708;10.900;2023-04-05T09:02:18;99172.88;;;15.41;38.63
21433;BME280;18592;49.708;10.900;2023-04-05T09:04:25;99166.66;;;15.50;39.00
21433;BME280;18592;49.708;10.900;2023-04-05T09:06:32;99160.09;;;15.61;39.05
21433;BME280;18592;49.708;10.900;2023-04-05T09:08:37;99168.66;;;15.70;38.90
21433;BME280;18592;49.708;10.900;2023-04-05T09:10:39;99160.13;;;15.76;38.58
21433;BME280;18592;49.708;10.900;2023-04-05T09:12:41;99161.81;;;15.82;38.45
21433;BME280;18592;49.708;10.900;2023-04-05T09:14:43;99163.50;;;15.88;38.27
21433;BME280;18592;49.708;10.900;2023-04-05T09:16:46;99161.84;;;15.93;38.06
21433;BME280;18592;49.708;10.900;2023-04-05T09:18:47;99164.63;;;15.98;37.97
21433;BME280;18592;49.708;10.900;2023-04-05T09:20:49;99163.53;;;16.04;37.84
21433;BME280;18592;49.708;10.900;2023-04-05T09:22:51;99163.56;;;16.09;37.19
21433;BME280;18592;49.708;10.900;2023-04-05T09:24:53;99157.47;;;16.12;36.87
21433;BME280;18592;49.708;10.900;2023-04-05T09:29:28;99153.13;;;16.21;36.67
21433;BME280;18592;49.708;10.900;2023-04-05T09:31:34;99158.09;;;16.29;37.31
21433;BME280;18592;49.708;10.900;2023-04-05T09:33:42;99156.97;;;16.35;37.27
21433;BME280;18592;49.708;10.900;2023-04-05T09:35:43;99153.41;;;16.44;37.33
21433;BME280;18592;49.708;10.900;2023-04-05T09:37:53;99165.25;;;16.50;35.99
21433;BME280;18592;49.708;10.900;2023-04-05T09:40:03;99157.84;;;16.56;36.15
21433;BME280;18592;49.708;10.900;2023-04-05T09:42:09;99151.78;;;16.59;36.11
21433;BME280;18592;49.708;10.900;2023-04-05T09:44:14;99148.22;;;16.58;36.06
21433;BME280;18592;49.708;10.900;2023-04-05T09:46:35;99146.53;;;16.57;35.30
21433;BME280;18592;49.708;10.900;2023-04-05T09:48:48;99147.38;;;16.58;35.97
21433;BME280;18592;49.708;10.900;2023-04-05T09:50:50;99144.63;;;16.58;35.67
21433;BME280;18592;49.708;10.900;2023-04-05T09:53:04;99139.94;;;16.58;34.45
21433;BME280;18592;49.708;10.900;2023-04-05T09:55:08;99154.81;;;16.57;34.72
21433;BME280;18592;49.708;10.900;2023-04-05T09:57:09;99149.31;;;16.57;35.29
21433;BME280;18592;49.708;10.900;2023-04-05T09:59:11;99150.13;;;16.58;34.92
21433;BME280;18592;49.708;10.900;2023-04-05T10:01:14;99150.41;;;16.61;35.51
21433;BME280;18592;49.708;10.900;2023-04-05T10:03:18;99151.78;;;16.64;35.38
21433;BME280;18592;49.708;10.900;2023-04-05T10:05:32;99147.66;;;16.66;34.93
21433;BME280;18592;49.708;10.900;2023-04-05T10:07:34;99149.28;;;16.67;34.73
21433;BME280;18592;49.708;10.900;2023-04-05T10:09:39;99146.00;;;16.65;34.71
21433;BME280;18592;49.708;10.900;2023-04-05T10:11:42;99152.63;;;16.64;34.61
21433;BME280;18592;49.708;10.900;2023-04-05T10:13:45;99141.34;;;16.61;34.30
21433;BME280;18592;49.708;10.900;2023-04-05T10:15:51;99146.00;;;16.60;34.05
21433;BME280;18592;49.708;10.900;2023-04-05T10:18:09;99142.16;;;16.56;33.48
21433;BME280;18592;49.708;10.900;2023-04-05T10:20:16;99139.94;;;16.58;34.24
21433;BME280;18592;49.708;10.900;2023-04-05T10:22:29;99139.94;;;16.63;34.81
21433;BME280;18592;49.708;10.900;2023-04-05T10:24:59;99142.69;;;16.73;35.02
21433;BME280;18592;49.708;10.900;2023-04-05T10:27:08;99134.72;;;16.87;35.28
21433;BME280;18592;49.708;10.900;2023-04-05T10:29:16;99126.13;;;16.98;35.10
21433;BME280;18592;49.708;10.900;2023-04-05T10:31:49;99124.47;;;17.12;35.31
21433;BME280;18592;49.708;10.900;2023-04-05T10:34:03;99119.44;;;17.30;35.24
21433;BME280;18592;49.708;10.900;2023-04-05T10:39:00;99122.16;;;17.45;33.78
21433;BME280;18592;49.708;10.900;2023-04-05T10:41:08;99119.94;;;17.42;33.28
21433;BME280;18592;49.708;10.900;2023-04-05T10:43:15;99123.25;;;17.39;33.12
21433;BME280;18592;49.708;10.900;2023-04-05T10:45:18;99112.56;;;17.32;32.77
21433;BME280;18592;49.708;10.900;2023-04-05T10:47:23;99116.72;;;17.25;32.66
21433;BME280;18592;49.708;10.900;2023-04-05T10:49:39;99120.59;;;17.13;31.99
21433;BME280;18592;49.708;10.900;2023-04-05T10:51:42;99115.94;;;17.04;31.83
21433;BME280;18592;49.708;10.900;2023-04-05T10:53:45;99122.56;;;16.98;32.55
21433;BME280;18592;49.708;10.900;2023-04-05T10:55:50;99118.72;;;16.89;32.42
21433;BME280;18592;49.708;10.900;2023-04-05T10:57:53;99118.44;;;16.85;32.81
21433;BME280;18592;49.708;10.900;2023-04-05T10:59:55;99125.63;;;16.86;33.25
21433;BME280;18592;49.708;10.900;2023-04-05T11:01:57;99115.69;;;16.90;33.32
21433;BME280;18592;49.708;10.900;2023-04-05T11:04:10;99119.25;;;16.96;33.58
21433;BME280;18592;49.708;10.900;2023-04-05T11:08:30;99120.03;;;17.17;33.98
21433;BME280;18592;49.708;10.900;2023-04-05T11:10:37;99115.03;;;17.29;33.87
21433;BME280;18592;49.708;10.900;2023-04-05T11:14:47;99104.47;;;17.51;34.42
21433;BME280;18592;49.708;10.900;2023-04-05T11:16:51;99104.19;;;17.62;34.13
21433;BME280;18592;49.708;10.900;2023-04-05T11:19:00;99098.31;;;17.74;34.23